Time;durP1;ratioP1;P1;durP2;ratioP2;P2;SDS_P1;SDS_P2;PMS_P1;PMS_P2;Temp;Humidity;BMP_temperature;BMP_pressure;BME280_temperature;BME280_humidity;BME280_pressure;Samples;Min_cycle;Max_cycle;Signal;HPM_P1;HPM_P2
2022/07/04 00:01:10;;;;;;;;;;;14.10;99.90;;;;;;5006193;28;20004;-69
2022/07/04 00:03:36;;;;;;;;;;;14.10;99.90;;;;;;4994459;28;19932;-70
2022/07/04 00:06:03;;;;;;;;;;;14.10;99.90;;;;;;5000984;28;19925;-70
2022/07/04 00:08:30;;;;;;;;;;;14.10;99.90;;;;;;4997189;28;20020;-69
2022/07/04 00:10:56;;;;;;;;;;;14.00;99.90;;;;;;5004879;28;20040;-69
2022/07/04 00:13:23;;;;;;;;;;;14.00;99.90;;;;;;4993917;28;20010;-70
2022/07/04 00:15:50;;;;;;;;;;;14.00;99.90;;;;;;4999944;28;19925;-69
2022/07/04 00:18:18;;;;;;;;;;;14.00;99.90;;;;;;4994007;28;20020;-69
2022/07/04 00:20:44;;;;;;;;;;;14.00;99.90;;;;;;4993002;28;19934;-70
2022/07/04 00:23:11;;;;;;;;;;;14.00;99.90;;;;;;4995081;28;20020;-69
2022/07/04 00:25:38;;;;;;;;;;;14.00;99.90;;;;;;5000650;28;19984;-69
2022/07/04 00:28:05;;;;;;;;;;;13.90;99.90;;;;;;4995173;28;20020;-71
2022/07/04 00:30:31;;;;;;;;;;;13.90;99.90;;;;;;5001727;28;19925;-71
2022/07/04 00:32:58;;;;;;;;;;;13.80;99.90;;;;;;4995373;28;20012;-71
2022/07/04 00:35:26;;;;;;;;;;;13.70;99.90;;;;;;4993722;28;19933;-71
2022/07/04 00:37:53;;;;;;;;;;;13.70;99.90;;;;;;4997254;28;20032;-70
2022/07/04 00:40:20;;;;;;;;;;;13.70;99.90;;;;;;4994143;28;20015;-71
2022/07/04 00:42:46;;;;;;;;;;;13.60;99.90;;;;;;4997577;28;19972;-70
2022/07/04 00:45:13;;;;;;;;;;;13.60;99.90;;;;;;4997024;28;20025;-70
2022/07/04 00:47:40;;;;;;;;;;;13.60;99.90;;;;;;4997932;28;19972;-69
2022/07/04 00:50:07;;;;;;;;;;;13.50;99.90;;;;;;4994593;28;20020;-69
2022/07/04 00:52:35;;;;;;;;;;;13.50;99.90;;;;;;5007941;28;20024;-69
2022/07/04 00:55:01;;;;;;;;;;;13.50;99.90;;;;;;4992478;28;19968;-70
2022/07/04 00:57:28;;;;;;;;;;;13.40;99.90;;;;;;5005156;28;19980;-70
2022/07/04 00:59:55;;;;;;;;;;;13.40;99.90;;;;;;4995006;28;19937;-71
2022/07/04 01:02:22;;;;;;;;;;;13.40;99.90;;;;;;4998635;28;20005;-70
2022/07/04 01:04:48;;;;;;;;;;;13.40;99.90;;;;;;4999338;28;19934;-70
2022/07/04 01:07:15;;;;;;;;;;;13.40;99.90;;;;;;5004863;28;20413;-70
2022/07/04 01:09:44;;;;;;;;;;;13.40;99.90;;;;;;4993706;28;20192;-70
2022/07/04 01:12:11;;;;;;;;;;;13.40;99.90;;;;;;4998769;28;20017;-70
2022/07/04 01:14:38;;;;;;;;;;;13.40;99.90;;;;;;5004967;28;19965;-70
2022/07/04 01:17:05;;;;;;;;;;;13.40;99.90;;;;;;5004361;28;19926;-70
2022/07/04 01:19:31;;;;;;;;;;;13.40;99.90;;;;;;4994356;28;19957;-70
2022/07/04 01:22:00;;;;;;;;;;;13.40;99.90;;;;;;5000662;28;20028;-70
2022/07/04 01:24:26;;;;;;;;;;;13.40;99.90;;;;;;4993962;28;19980;-68
2022/07/04 01:26:53;;;;;;;;;;;13.30;99.90;;;;;;4997342;28;20397;-70
2022/07/04 01:29:20;;;;;;;;;;;13.10;99.90;;;;;;4992322;28;20020;-70
2022/07/04 01:31:47;;;;;;;;;;;13.10;99.90;;;;;;4997331;28;19965;-71
2022/07/04 01:34:14;;;;;;;;;;;13.00;99.90;;;;;;4992621;28;20501;-71
2022/07/04 01:36:40;;;;;;;;;;;13.00;99.90;;;;;;4994904;28;20454;-71
2022/07/04 01:39:08;;;;;;;;;;;12.90;99.90;;;;;;4998788;28;20015;-71
2022/07/04 01:41:35;;;;;;;;;;;13.00;99.90;;;;;;5002234;28;19932;-68
2022/07/04 01:44:02;;;;;;;;;;;12.90;99.90;;;;;;4999365;28;19926;-69
2022/07/04 01:46:29;;;;;;;;;;;12.90;99.90;;;;;;5003419;28;19929;-69
2022/07/04 01:48:56;;;;;;;;;;;12.90;99.90;;;;;;4998440;28;19969;-69
2022/07/04 01:51:23;;;;;;;;;;;12.90;99.90;;;;;;5007401;28;19932;-68
2022/07/04 01:53:49;;;;;;;;;;;12.90;99.90;;;;;;4998558;28;20401;-68
2022/07/04 01:56:17;;;;;;;;;;;12.90;99.90;;;;;;4996576;28;19968;-68
2022/07/04 01:58:44;;;;;;;;;;;13.00;99.90;;;;;;4998363;28;20748;-68
2022/07/04 02:03:55;;;;;;;;;;;12.90;99.90;;;;;;4990722;28;19941;-68
2022/07/04 02:06:21;;;;;;;;;;;12.90;99.90;;;;;;5005004;28;20455;-68
2022/07/04 02:13:00;;;;;;;;;;;13.00;99.90;;;;;;5005355;28;19932;-68
2022/07/04 02:14:19;;;;;;;;;;;12.90;99.90;;;;;;5006389;28;19961;-69
2022/07/04 02:16:46;;;;;;;;;;;12.90;99.90;;;;;;5005264;28;20447;-68
2022/07/04 02:19:13;;;;;;;;;;;12.90;99.90;;;;;;4997556;28;20380;-68
2022/07/04 02:21:40;;;;;;;;;;;12.90;99.90;;;;;;5006602;28;19972;-68
2022/07/04 02:24:07;;;;;;;;;;;12.90;99.90;;;;;;4997671;28;20485;-68
2022/07/04 02:26:35;;;;;;;;;;;12.90;99.90;;;;;;5006975;28;20423;-68
2022/07/04 02:29:01;;;;;;;;;;;12.90;99.90;;;;;;5000358;28;20064;-69
2022/07/04 02:31:28;;;;;;;;;;;12.90;99.90;;;;;;5004325;28;20024;-69
2022/07/04 02:33:55;;;;;;;;;;;12.90;99.90;;;;;;5003018;28;19932;-69
2022/07/04 02:36:21;;;;;;;;;;;12.90;99.90;;;;;;4997782;28;20017;-68
2022/07/04 02:38:48;;;;;;;;;;;12.80;99.90;;;;;;4996840;28;19996;-68
2022/07/04 02:41:15;;;;;;;;;;;12.80;99.90;;;;;;4994498;28;20349;-68
2022/07/04 02:43:43;;;;;;;;;;;12.90;99.90;;;;;;4998499;28;19984;-69
2022/07/04 02:46:09;;;;;;;;;;;12.80;99.90;;;;;;5000636;28;20028;-70
2022/07/04 02:48:36;;;;;;;;;;;12.90;99.90;;;;;;5003073;28;20380;-71
2022/07/04 02:51:03;;;;;;;;;;;12.90;99.90;;;;;;5001086;28;20008;-70
2022/07/04 02:53:29;;;;;;;;;;;12.90;99.90;;;;;;5001883;28;20324;-69
2022/07/04 02:55:56;;;;;;;;;;;12.90;99.90;;;;;;5006747;28;19925;-70
2022/07/04 02:58:23;;;;;;;;;;;12.90;99.90;;;;;;5006183;28;20029;-70
2022/07/04 03:00:50;;;;;;;;;;;12.80;99.90;;;;;;5004889;28;19935;-70
2022/07/04 03:03:17;;;;;;;;;;;12.80;99.90;;;;;;4994439;28;19929;-69
2022/07/04 03:05:44;;;;;;;;;;;12.80;99.90;;;;;;5000918;28;19926;-69
2022/07/04 03:08:10;;;;;;;;;;;12.70;99.90;;;;;;4994688;28;19973;-69
2022/07/04 03:10:37;;;;;;;;;;;12.70;99.90;;;;;;5001768;28;19926;-69
2022/07/04 03:13:04;;;;;;;;;;;12.70;99.90;;;;;;4996205;28;20005;-69
2022/07/04 03:15:30;;;;;;;;;;;12.70;99.90;;;;;;4999362;28;19980;-69
2022/07/04 03:18:00;;;;;;;;;;;12.70;99.90;;;;;;5005735;28;20227;-69
2022/07/04 03:20:27;;;;;;;;;;;12.70;99.90;;;;;;5012999;28;19926;-69
2022/07/04 03:22:55;;;;;;;;;;;12.70;99.90;;;;;;5005365;28;20067;-70
2022/07/04 03:25:22;;;;;;;;;;;12.70;99.90;;;;;;5001581;28;19937;-69
2022/07/04 03:27:48;;;;;;;;;;;12.70;99.90;;;;;;5003074;28;20013;-70
2022/07/04 03:30:15;;;;;;;;;;;12.70;99.90;;;;;;5012001;28;20028;-70
2022/07/04 03:32:42;;;;;;;;;;;12.60;99.90;;;;;;5007907;28;20595;-71
2022/07/04 03:35:10;;;;;;;;;;;12.60;99.90;;;;;;5006897;28;19926;-70
2022/07/04 03:37:36;;;;;;;;;;;12.60;99.90;;;;;;5002751;28;19925;-71
2022/07/04 03:40:03;;;;;;;;;;;12.60;99.90;;;;;;5004234;28;19965;-71
2022/07/04 03:42:30;;;;;;;;;;;12.60;99.90;;;;;;4997611;28;19925;-72
2022/07/04 03:44:57;;;;;;;;;;;12.60;99.90;;;;;;4995054;28;20024;-70
2022/07/04 03:47:24;;;;;;;;;;;12.60;99.90;;;;;;5008772;28;19926;-71
2022/07/04 03:49:50;;;;;;;;;;;12.50;99.90;;;;;;5010419;28;19965;-70
2022/07/04 03:52:18;;;;;;;;;;;12.50;99.90;;;;;;4997900;28;19966;-71
2022/07/04 03:54:45;;;;;;;;;;;12.50;99.90;;;;;;4995540;28;20409;-71
2022/07/04 03:57:12;;;;;;;;;;;12.50;99.90;;;;;;4995177;28;20020;-70
2022/07/04 03:59:38;;;;;;;;;;;12.50;99.90;;;;;;5004366;28;20016;-71
2022/07/04 04:02:05;;;;;;;;;;;12.50;99.90;;;;;;4993871;28;20033;-71
2022/07/04 04:07:16;;;;;;;;;;;12.50;99.90;;;;;;4995723;28;19933;-71
2022/07/04 04:09:44;;;;;;;;;;;12.50;99.90;;;;;;4997959;28;19960;-70
2022/07/04 04:12:10;;;;;;;;;;;12.50;99.90;;;;;;5009906;28;20008;-69
2022/07/04 04:14:37;;;;;;;;;;;12.50;99.90;;;;;;4996863;28;19967;-69
2022/07/04 04:17:04;;;;;;;;;;;12.60;99.90;;;;;;4998908;28;19964;-70
2022/07/04 04:19:31;;;;;;;;;;;12.60;99.90;;;;;;4999381;28;20028;-72
2022/07/04 04:21:57;;;;;;;;;;;12.60;99.90;;;;;;4997428;28;19969;-70
2022/07/04 04:24:24;;;;;;;;;;;12.60;99.90;;;;;;4995416;28;19976;-70
2022/07/04 04:26:52;;;;;;;;;;;12.60;99.90;;;;;;4998639;28;19929;-70
2022/07/04 04:29:19;;;;;;;;;;;12.70;99.90;;;;;;5006141;28;19961;-70
2022/07/04 04:31:46;;;;;;;;;;;12.70;99.90;;;;;;4998331;28;19953;-70
2022/07/04 04:34:12;;;;;;;;;;;12.80;99.90;;;;;;4995498;28;20415;-70
2022/07/04 04:36:39;;;;;;;;;;;12.90;99.90;;;;;;5000155;28;20043;-70
2022/07/04 04:39:06;;;;;;;;;;;13.00;99.90;;;;;;4999249;28;19932;-70
2022/07/04 04:41:32;;;;;;;;;;;13.10;99.90;;;;;;5006698;28;19925;-70
2022/07/04 04:44:00;;;;;;;;;;;13.20;99.90;;;;;;4995313;28;20517;-70
2022/07/04 04:46:27;;;;;;;;;;;13.40;99.90;;;;;;4999135;28;19975;-70
2022/07/04 04:48:54;;;;;;;;;;;13.50;99.90;;;;;;5001463;28;20420;-70
2022/07/04 04:51:20;;;;;;;;;;;13.50;99.90;;;;;;4999567;28;20285;-70
2022/07/04 04:53:47;;;;;;;;;;;13.60;99.90;;;;;;5002191;28;19977;-70
2022/07/04 04:56:14;;;;;;;;;;;13.70;99.90;;;;;;5002699;28;19979;-70
2022/07/04 04:58:40;;;;;;;;;;;13.80;99.90;;;;;;5005081;28;19965;-70
2022/07/04 05:01:08;;;;;;;;;;;13.90;99.90;;;;;;5002391;28;19926;-70
2022/07/04 05:03:35;;;;;;;;;;;13.80;99.90;;;;;;4999612;28;20348;-70
2022/07/04 05:06:02;;;;;;;;;;;13.80;99.90;;;;;;5007739;28;19925;-70
2022/07/04 05:08:29;;;;;;;;;;;13.80;99.90;;;;;;5006255;28;19957;-69
2022/07/04 05:10:55;;;;;;;;;;;13.90;99.90;;;;;;4994608;28;20004;-70
2022/07/04 05:13:22;;;;;;;;;;;14.00;99.90;;;;;;5000406;28;20017;-70
2022/07/04 05:15:49;;;;;;;;;;;14.10;99.90;;;;;;4994834;28;20012;-70
2022/07/04 05:18:17;;;;;;;;;;;14.20;99.90;;;;;;5004595;28;19968;-70
2022/07/04 05:20:44;;;;;;;;;;;14.30;99.90;;;;;;4996332;28;19932;-70
2022/07/04 05:23:11;;;;;;;;;;;14.50;99.90;;;;;;4992970;28;19925;-70
2022/07/04 05:25:38;;;;;;;;;;;14.70;99.90;;;;;;4995215;28;20348;-71
2022/07/04 05:28:05;;;;;;;;;;;14.70;99.90;;;;;;5010235;28;19925;-70
2022/07/04 05:30:32;;;;;;;;;;;14.70;99.90;;;;;;5003172;28;19933;-68
2022/07/04 05:33:00;;;;;;;;;;;14.70;99.90;;;;;;5006211;28;20021;-70
2022/07/04 05:35:29;;;;;;;;;;;14.80;99.90;;;;;;5001068;28;19925;-70
2022/07/04 05:37:56;;;;;;;;;;;14.70;99.90;;;;;;5006178;28;20337;-70
2022/07/04 05:40:22;;;;;;;;;;;14.90;99.90;;;;;;4995018;28;19926;-70
2022/07/04 05:42:49;;;;;;;;;;;14.90;99.90;;;;;;5001835;28;19972;-70
2022/07/04 05:45:16;;;;;;;;;;;14.80;99.90;;;;;;5004881;28;20347;-71
2022/07/04 05:47:43;;;;;;;;;;;15.00;99.90;;;;;;4992702;28;19945;-71
2022/07/04 05:50:10;;;;;;;;;;;15.20;99.90;;;;;;5006651;28;19960;-70
2022/07/04 05:52:39;;;;;;;;;;;15.20;99.90;;;;;;5006926;28;19926;-70
2022/07/04 05:55:07;;;;;;;;;;;15.40;99.90;;;;;;5010568;28;20408;-70
2022/07/04 05:57:33;;;;;;;;;;;15.60;99.90;;;;;;5006249;28;19930;-70
2022/07/04 06:00:00;;;;;;;;;;;15.70;99.90;;;;;;5008536;28;20020;-70
2022/07/04 06:02:27;;;;;;;;;;;15.80;99.90;;;;;;5010359;28;22608;-71
2022/07/04 06:04:53;;;;;;;;;;;16.50;99.90;;;;;;5007888;28;19929;-70
2022/07/04 06:07:20;;;;;;;;;;;18.10;99.90;;;;;;5007454;28;20032;-69
2022/07/04 06:09:48;;;;;;;;;;;20.10;99.60;;;;;;5003585;28;19925;-70
2022/07/04 06:12:15;;;;;;;;;;;21.60;95.20;;;;;;5005934;28;19947;-70
2022/07/04 06:14:42;;;;;;;;;;;23.40;90.80;;;;;;5001663;28;19938;-71
2022/07/04 06:17:08;;;;;;;;;;;24.60;78.90;;;;;;4998566;28;20020;-71
2022/07/04 06:19:35;;;;;;;;;;;25.50;68.60;;;;;;4996342;28;19932;-70
2022/07/04 06:22:02;;;;;;;;;;;25.60;59.80;;;;;;5005761;28;20027;-69
2022/07/04 06:24:28;;;;;;;;;;;25.00;58.40;;;;;;4993701;28;20395;-71
2022/07/04 06:26:56;;;;;;;;;;;24.70;59.70;;;;;;5005929;28;20347;-70
2022/07/04 06:29:23;;;;;;;;;;;25.50;58.40;;;;;;4995518;28;19951;-71
2022/07/04 06:31:50;;;;;;;;;;;26.40;55.00;;;;;;5001584;28;20025;-70
2022/07/04 06:37:01;;;;;;;;;;;27.20;50.00;;;;;;5006470;28;19963;-70
2022/07/04 06:39:27;;;;;;;;;;;27.60;46.50;;;;;;5004299;28;19925;-70
2022/07/04 06:41:54;;;;;;;;;;;28.30;44.70;;;;;;5008675;28;20297;-70
2022/07/04 06:44:22;;;;;;;;;;;28.00;42.50;;;;;;5004427;28;20004;-70
2022/07/04 06:46:50;;;;;;;;;;;26.60;45.30;;;;;;4995515;28;19941;-70
2022/07/04 06:49:17;;;;;;;;;;;26.70;46.40;;;;;;4996795;28;20418;-70
2022/07/04 06:51:44;;;;;;;;;;;26.30;45.20;;;;;;4995868;28;20369;-70
2022/07/04 06:54:11;;;;;;;;;;;26.40;46.50;;;;;;4993778;28;19930;-70
2022/07/04 06:56:38;;;;;;;;;;;26.90;46.20;;;;;;5005809;28;19982;-70
2022/07/04 06:59:04;;;;;;;;;;;27.60;43.30;;;;;;5006262;28;19981;-69
2022/07/04 07:01:33;;;;;;;;;;;27.10;43.20;;;;;;5007999;28;19976;-70
2022/07/04 07:03:59;;;;;;;;;;;27.60;43.90;;;;;;4999162;28;19969;-70
2022/07/04 07:06:26;;;;;;;;;;;28.10;41.10;;;;;;5000119;28;20635;-71
2022/07/04 07:08:52;;;;;;;;;;;29.00;39.70;;;;;;4990598;28;20013;-69
2022/07/04 07:11:19;;;;;;;;;;;29.40;36.90;;;;;;4996382;28;20125;-69
2022/07/04 07:13:47;;;;;;;;;;;29.30;34.30;;;;;;4998038;28;19941;-69
2022/07/04 07:16:14;;;;;;;;;;;29.20;34.50;;;;;;5000175;28;19965;-70
2022/07/04 07:18:42;;;;;;;;;;;29.40;34.60;;;;;;5000765;28;19930;-71
2022/07/04 07:21:09;;;;;;;;;;;29.80;32.30;;;;;;4991429;28;19984;-70
2022/07/04 07:23:38;;;;;;;;;;;30.10;31.30;;;;;;4991842;28;19977;-70
2022/07/04 07:26:04;;;;;;;;;;;29.90;30.00;;;;;;4997553;28;20019;-70
2022/07/04 07:28:31;;;;;;;;;;;;;;;;;;5000663;28;19972;-70
2022/07/04 07:30:58;;;;;;;;;;;30.10;29.70;;;;;;5001734;28;20016;-70
2022/07/04 07:33:25;;;;;;;;;;;30.60;28.40;;;;;;5008764;28;20372;-70
2022/07/04 07:35:53;;;;;;;;;;;30.90;27.80;;;;;;5006523;28;19925;-70
2022/07/04 07:38:20;;;;;;;;;;;31.30;26.10;;;;;;5002968;28;20020;-71
2022/07/04 07:40:47;;;;;;;;;;;30.70;25.30;;;;;;4998953;28;19970;-69
2022/07/04 07:43:13;;;;;;;;;;;31.10;25.10;;;;;;4993480;28;19926;-70
2022/07/04 07:45:40;;;;;;;;;;;31.20;24.50;;;;;;4999812;28;20443;-70
2022/07/04 07:48:07;;;;;;;;;;;30.40;24.50;;;;;;5003810;28;20016;-70
2022/07/04 07:50:34;;;;;;;;;;;29.90;25.70;;;;;;5001511;28;20347;-70
2022/07/04 07:53:02;;;;;;;;;;;29.50;26.00;;;;;;5004885;28;19930;-69
2022/07/04 07:55:28;;;;;;;;;;;29.20;25.40;;;;;;5005044;28;19994;-71
2022/07/04 07:57:55;;;;;;;;;;;29.00;25.40;;;;;;5011203;28;20407;-70
2022/07/04 08:00:22;;;;;;;;;;;29.10;24.90;;;;;;5001691;28;20312;-70
2022/07/04 08:05:33;;;;;;;;;;;29.70;24.30;;;;;;5003374;28;20076;-71
2022/07/04 08:07:59;;;;;;;;;;;30.40;23.30;;;;;;5002077;28;20013;-70
2022/07/04 08:10:27;;;;;;;;;;;30.40;22.20;;;;;;5006837;28;20353;-69
2022/07/04 08:12:55;;;;;;;;;;;30.30;22.10;;;;;;5006458;28;19976;-69
2022/07/04 08:15:22;;;;;;;;;;;30.20;21.80;;;;;;5007440;28;19933;-70
2022/07/04 08:17:49;;;;;;;;;;;30.30;21.10;;;;;;5003320;28;20392;-69
2022/07/04 08:20:15;;;;;;;;;;;29.40;21.90;;;;;;5008954;28;20282;-70
2022/07/04 08:22:42;;;;;;;;;;;29.30;23.00;;;;;;5009579;28;19973;-69
2022/07/04 08:25:09;;;;;;;;;;;28.90;23.30;;;;;;5000342;28;20440;-69
2022/07/04 08:27:37;;;;;;;;;;;29.10;22.90;;;;;;4998396;28;19926;-70
2022/07/04 08:30:05;;;;;;;;;;;30.00;20.90;;;;;;5000075;28;20294;-70
2022/07/04 08:32:33;;;;;;;;;;;30.80;19.70;;;;;;5006504;28;19934;-70
2022/07/04 08:34:59;;;;;;;;;;;29.80;19.80;;;;;;4997553;28;19953;-72
2022/07/04 08:37:26;;;;;;;;;;;29.60;20.30;;;;;;5007074;28;19960;-69
2022/07/04 08:39:53;;;;;;;;;;;29.60;20.40;;;;;;5003351;28;19972;-69
2022/07/04 08:42:20;;;;;;;;;;;29.70;20.50;;;;;;4999350;28;19961;-71
2022/07/04 08:44:49;;;;;;;;;;;30.10;19.90;;;;;;5011899;28;19926;-71
2022/07/04 08:47:18;;;;;;;;;;;30.40;19.50;;;;;;5001810;28;19973;-73
2022/07/04 08:49:46;;;;;;;;;;;30.30;19.50;;;;;;4992640;28;19961;-71
2022/07/04 08:52:15;;;;;;;;;;;30.80;18.90;;;;;;5003805;28;19932;-70
2022/07/04 09:00:12;;;;;;;;;;;31.10;18.70;;;;;;5008289;28;19992;-70
2022/07/04 09:02:39;;;;;;;;;;;30.80;18.70;;;;;;5004715;28;19929;-70
2022/07/04 09:05:07;;;;;;;;;;;30.70;18.70;;;;;;5003658;28;19976;-70
2022/07/04 09:07:34;;;;;;;;;;;30.90;18.40;;;;;;5003047;28;22017;-70
2022/07/04 09:10:03;;;;;;;;;;;30.60;19.90;;;;;;5007952;28;19925;-70
2022/07/04 09:12:30;;;;;;;;;;;30.00;20.10;;;;;;4998270;28;19996;-70
2022/07/04 09:14:59;;;;;;;;;;;30.40;19.50;;;;;;4998931;28;19957;-70
2022/07/04 09:17:27;;;;;;;;;;;30.30;18.80;;;;;;4994181;28;19926;-70
2022/07/04 09:20:16;;;;;;;;;;;30.20;19.50;;;;;;4997983;28;19926;-70
2022/07/04 09:22:43;;;;;;;;;;;30.60;18.40;;;;;;4999383;28;19972;-70
2022/07/04 09:25:12;;;;;;;;;;;30.70;18.50;;;;;;5003768;28;19988;-70
2022/07/04 09:27:41;;;;;;;;;;;30.10;19.30;;;;;;5002665;28;20381;-70
2022/07/04 09:30:08;;;;;;;;;;;30.50;18.70;;;;;;4993508;28;19932;-70
2022/07/04 09:32:38;;;;;;;;;;;30.80;18.90;;;;;;4995845;28;19973;-70
2022/07/04 09:35:05;;;;;;;;;;;31.20;18.10;;;;;;4995897;28;20016;-71
2022/07/04 09:37:38;;;;;;;;;;;31.30;18.60;;;;;;4995406;28;19992;-70
2022/07/04 09:40:06;;;;;;;;;;;31.10;17.50;;;;;;5008596;28;19957;-70
2022/07/04 09:42:39;;;;;;;;;;;30.50;18.40;;;;;;5005497;28;19965;-71
2022/07/04 09:45:07;;;;;;;;;;;30.90;18.10;;;;;;5001744;28;19925;-71
2022/07/04 09:47:33;;;;;;;;;;;30.80;17.50;;;;;;5002966;28;19933;-70
2022/07/04 09:50:03;;;;;;;;;;;30.40;18.40;;;;;;4994520;28;19939;-69
2022/07/04 09:52:30;;;;;;;;;;;29.90;18.70;;;;;;5004523;28;19933;-71
2022/07/04 09:54:58;;;;;;;;;;;30.00;18.60;;;;;;4999166;28;19968;-70
2022/07/04 09:57:26;;;;;;;;;;;30.10;19.00;;;;;;4998638;28;19925;-69
2022/07/04 09:59:53;;;;;;;;;;;30.20;19.00;;;;;;4999598;28;20012;-71
2022/07/04 10:02:19;;;;;;;;;;;30.20;18.70;;;;;;4999812;28;20377;-70
2022/07/04 10:04:47;;;;;;;;;;;30.00;18.90;;;;;;4995004;28;20415;-71
2022/07/04 10:07:30;;;;;;;;;;;29.20;19.70;;;;;;4998832;28;19929;-72
2022/07/04 10:09:57;;;;;;;;;;;29.00;20.30;;;;;;4995578;28;20472;-70
2022/07/04 10:12:25;;;;;;;;;;;28.70;20.90;;;;;;4999452;28;20248;-70
2022/07/04 10:14:52;;;;;;;;;;;27.90;21.00;;;;;;5000234;28;20696;-70
2022/07/04 10:17:19;;;;;;;;;;;26.60;23.40;;;;;;4992042;28;20226;-70
2022/07/04 10:22:13;;;;;;;;;;;25.10;26.90;;;;;;5080900;22;19993;-71
2022/07/04 10:24:41;;;;;;;;;;;24.70;25.70;;;;;;5058538;28;19924;-70
2022/07/04 10:27:08;;;;;;;;;;;24.70;26.60;;;;;;5049799;28;19929;-71
2022/07/04 10:29:35;;;;;;;;;;;24.80;26.80;;;;;;5055027;28;19971;-72
2022/07/04 10:32:01;;;;;;;;;;;25.00;27.70;;;;;;5054567;28;19975;-72
2022/07/04 10:34:28;;;;;;;;;;;25.10;27.60;;;;;;5062506;28;20015;-71
2022/07/04 10:36:55;;;;;;;;;;;25.30;27.50;;;;;;5057316;28;20286;-71
2022/07/04 10:39:22;;;;;;;;;;;25.50;26.80;;;;;;5065199;28;20007;-72
2022/07/04 10:41:58;;;;;;;;;;;25.50;26.40;;;;;;5062513;28;20114;-72
2022/07/04 10:44:26;;;;;;;;;;;25.30;26.80;;;;;;5061922;28;19932;-71
2022/07/04 10:46:56;;;;;;;;;;;25.00;27.80;;;;;;5057673;28;20407;-70
2022/07/04 10:49:25;;;;;;;;;;;24.90;28.90;;;;;;5062389;28;19924;-70
2022/07/04 10:51:52;;;;;;;;;;;25.10;29.50;;;;;;5062399;28;19951;-71
2022/07/04 10:54:19;;;;;;;;;;;24.90;28.90;;;;;;5060043;28;19925;-70
2022/07/04 10:56:47;;;;;;;;;;;24.50;29.50;;;;;;5054028;28;19924;-72
2022/07/04 10:59:16;;;;;;;;;;;24.80;27.80;;;;;;5057493;28;19932;-72
2022/07/04 11:01:50;;;;;;;;;;;25.00;26.70;;;;;;5062277;28;20055;-71
2022/07/04 11:04:41;;;;;;;;;;;25.10;24.50;;;;;;5064054;28;19928;-71
2022/07/04 11:07:07;;;;;;;;;;;24.80;25.00;;;;;;5053202;28;20067;-71
2022/07/04 11:09:34;;;;;;;;;;;24.70;28.00;;;;;;5057696;28;20041;-70
2022/07/04 11:12:01;;;;;;;;;;;24.90;28.10;;;;;;5063785;28;19924;-71
2022/07/04 11:14:33;;;;;;;;;;;24.80;27.70;;;;;;5063391;28;19948;-70
2022/07/04 11:17:00;;;;;;;;;;;24.90;27.60;;;;;;5064247;28;19928;-70
2022/07/04 11:19:28;;;;;;;;;;;25.10;27.40;;;;;;5064073;28;20015;-74
2022/07/04 11:21:55;;;;;;;;;;;25.30;27.30;;;;;;5068829;28;19977;-71
2022/07/04 11:24:22;;;;;;;;;;;25.30;26.30;;;;;;5062529;28;19954;-71
2022/07/04 11:26:48;;;;;;;;;;;25.00;26.90;;;;;;5056172;28;19925;-68
2022/07/04 11:29:15;;;;;;;;;;;25.30;27.60;;;;;;5056990;28;19960;-69
2022/07/04 11:31:45;;;;;;;;;;;25.80;26.30;;;;;;5071416;28;20047;-72
2022/07/04 11:34:12;;;;;;;;;;;25.40;26.80;;;;;;5063526;28;20306;-73
2022/07/04 11:36:39;;;;;;;;;;;25.00;27.50;;;;;;5069535;28;19932;-72
2022/07/04 11:39:07;;;;;;;;;;;25.00;26.70;;;;;;5061783;28;19924;-71
2022/07/04 11:47:08;;;;;;;;;;;24.20;28.10;;;;;;5065196;28;20424;-70
2022/07/04 11:49:35;;;;;;;;;;;23.80;29.10;;;;;;5057663;28;19964;-70
2022/07/04 11:52:02;;;;;;;;;;;23.90;29.60;;;;;;5051957;28;19943;-70
2022/07/04 11:54:29;;;;;;;;;;;24.00;29.00;;;;;;5057881;28;20383;-70
2022/07/04 11:57:08;;;;;;;;;;;24.10;29.40;;;;;;5054777;28;20279;-70
2022/07/04 11:59:35;;;;;;;;;;;24.00;29.30;;;;;;5065876;28;20002;-70
2022/07/04 12:02:12;;;;;;;;;;;23.80;30.00;;;;;;5066640;28;19924;-70
2022/07/04 12:04:41;;;;;;;;;;;23.90;30.10;;;;;;5060456;28;19937;-70
2022/07/04 12:07:11;;;;;;;;;;;24.00;30.00;;;;;;5057837;28;19986;-70
2022/07/04 12:09:38;;;;;;;;;;;24.70;29.50;;;;;;5056314;28;19998;-69
2022/07/04 12:12:05;;;;;;;;;;;25.20;28.80;;;;;;5054887;28;19925;-71
2022/07/04 12:14:32;;;;;;;;;;;25.50;28.70;;;;;;5066244;28;20383;-71
2022/07/04 12:17:18;;;;;;;;;;;25.20;27.00;;;;;;5060629;28;20027;-70
2022/07/04 12:19:55;;;;;;;;;;;24.90;28.00;;;;;;5060445;28;20027;-70
2022/07/04 12:22:40;;;;;;;;;;;24.90;28.50;;;;;;5060624;28;19967;-70
2022/07/04 12:25:08;;;;;;;;;;;24.80;27.70;;;;;;5058757;28;19935;-70
2022/07/04 12:27:35;;;;;;;;;;;24.80;28.10;;;;;;5064207;28;20427;-71
2022/07/04 12:30:01;;;;;;;;;;;25.00;28.70;;;;;;5063237;28;19928;-70
2022/07/04 12:32:49;;;;;;;;;;;25.20;27.90;;;;;;5066411;28;19931;-71
2022/07/04 12:35:34;;;;;;;;;;;25.10;27.30;;;;;;5063256;28;20374;-71
2022/07/04 12:38:01;;;;;;;;;;;25.30;26.50;;;;;;5062960;28;19924;-69
2022/07/04 12:40:28;;;;;;;;;;;25.20;25.90;;;;;;5060025;28;19925;-70
2022/07/04 12:42:55;;;;;;;;;;;24.70;26.60;;;;;;5062816;28;20010;-71
2022/07/04 12:45:22;;;;;;;;;;;24.70;26.30;;;;;;5063803;28;19967;-70
2022/07/04 12:47:50;;;;;;;;;;;24.70;27.10;;;;;;5059457;28;19931;-70
2022/07/04 12:50:25;;;;;;;;;;;25.00;25.90;;;;;;5058852;28;19925;-70
2022/07/04 12:52:52;;;;;;;;;;;25.10;26.10;;;;;;5063410;28;20015;-74
2022/07/04 12:55:18;;;;;;;;;;;25.40;25.10;;;;;;5064810;28;19956;-71
2022/07/04 12:57:45;;;;;;;;;;;25.70;25.70;;;;;;5060271;28;19924;-68
2022/07/04 13:00:12;;;;;;;;;;;26.00;25.80;;;;;;5061715;28;20060;-71
2022/07/04 13:02:39;;;;;;;;;;;25.50;24.20;;;;;;5063330;28;19931;-69
2022/07/04 13:05:08;;;;;;;;;;;25.50;24.60;;;;;;5061106;28;19975;-69
2022/07/04 13:07:35;;;;;;;;;;;25.50;23.40;;;;;;5058905;28;19925;-69
2022/07/04 13:10:01;;;;;;;;;;;25.70;23.80;;;;;;5060905;28;19933;-70
2022/07/04 13:12:28;;;;;;;;;;;25.80;23.50;;;;;;5062704;28;19931;-70
2022/07/04 13:14:56;;;;;;;;;;;26.10;24.10;;;;;;5064871;28;19974;-70
2022/07/04 13:17:24;;;;;;;;;;;26.50;24.40;;;;;;5067260;28;19968;-70
2022/07/04 13:19:52;;;;;;;;;;;26.60;23.40;;;;;;5058866;28;19970;-70
2022/07/04 13:22:20;;;;;;;;;;;26.30;22.70;;;;;;5065336;28;19928;-69
2022/07/04 13:24:47;;;;;;;;;;;26.00;23.50;;;;;;5065601;28;19987;-69
2022/07/04 13:27:13;;;;;;;;;;;26.00;24.40;;;;;;5065846;28;19975;-70
2022/07/04 13:29:40;;;;;;;;;;;26.30;23.70;;;;;;5058047;28;20019;-71
2022/07/04 13:32:07;;;;;;;;;;;26.40;23.30;;;;;;5055225;28;19932;-70
2022/07/04 13:34:35;;;;;;;;;;;26.30;23.70;;;;;;5055592;28;19925;-70
2022/07/04 13:37:01;;;;;;;;;;;26.00;23.10;;;;;;5062048;28;19925;-72
2022/07/04 13:39:30;;;;;;;;;;;25.60;23.30;;;;;;5061550;28;19963;-71
2022/07/04 13:41:56;;;;;;;;;;;25.20;23.60;;;;;;5060842;28;19964;-71
2022/07/04 13:44:23;;;;;;;;;;;25.30;24.10;;;;;;5064875;28;19930;-73
2022/07/04 13:46:49;;;;;;;;;;;25.60;23.40;;;;;;5064161;28;19924;-72
2022/07/04 13:49:16;;;;;;;;;;;25.50;23.80;;;;;;5064144;28;20347;-71
2022/07/04 13:51:43;;;;;;;;;;;25.90;24.40;;;;;;5061693;28;19932;-71
2022/07/04 13:54:10;;;;;;;;;;;26.10;21.00;;;;;;5065837;28;20011;-71
2022/07/04 13:56:39;;;;;;;;;;;25.80;21.00;;;;;;5061545;28;19930;-72
2022/07/04 13:59:06;;;;;;;;;;;25.60;22.20;;;;;;5061719;28;19960;-69
2022/07/04 14:01:33;;;;;;;;;;;25.80;22.60;;;;;;5059889;28;19928;-71
2022/07/04 14:04:00;;;;;;;;;;;26.10;23.50;;;;;;5062410;28;19972;-70
2022/07/04 14:06:27;;;;;;;;;;;26.80;22.90;;;;;;5062195;28;19959;-74
2022/07/04 14:08:54;;;;;;;;;;;27.10;21.50;;;;;;5059738;28;19972;-72
2022/07/04 14:11:20;;;;;;;;;;;27.10;22.00;;;;;;5063818;28;19975;-72
2022/07/04 14:13:49;;;;;;;;;;;27.30;22.90;;;;;;5063231;28;20462;-72
2022/07/04 14:16:16;;;;;;;;;;;27.50;21.80;;;;;;5064818;28;20022;-72
2022/07/04 14:18:43;;;;;;;;;;;27.00;21.10;;;;;;5058985;28;19937;-71
2022/07/04 14:21:10;;;;;;;;;;;26.60;21.90;;;;;;5055128;28;19930;-71
2022/07/04 14:23:42;;;;;;;;;;;26.30;22.30;;;;;;5060824;28;20367;-70
2022/07/04 14:26:10;;;;;;;;;;;25.90;22.90;;;;;;5060072;28;19940;-71
2022/07/04 14:28:37;;;;;;;;;;;25.90;23.10;;;;;;5059622;28;20411;-71
2022/07/04 14:31:05;;;;;;;;;;;25.80;23.50;;;;;;5064968;28;19984;-72
2022/07/04 14:33:32;;;;;;;;;;;25.70;23.40;;;;;;5061695;28;20414;-72
2022/07/04 14:35:59;;;;;;;;;;;25.50;23.80;;;;;;5064094;28;20019;-71
2022/07/04 14:38:26;;;;;;;;;;;25.40;23.50;;;;;;5056812;28;20388;-71
2022/07/04 14:40:52;;;;;;;;;;;25.30;23.80;;;;;;5046523;28;19931;-73
2022/07/04 14:43:19;;;;;;;;;;;25.60;23.50;;;;;;5062997;28;19978;-72
2022/07/04 14:45:46;;;;;;;;;;;25.70;22.80;;;;;;5062268;28;19971;-73
2022/07/04 14:48:15;;;;;;;;;;;25.50;23.70;;;;;;5060704;28;19936;-73